Elk City, OK (73644)

3:43 AM CDT on August 02, 2014 (GMT -0500)
HADS MUNICIPAL AIRPORT NEAR ELK CITY OK US USGS (MELCO2) Elev 1981 ft | 35.43 °N, 99.40 °W | Change Station

Current weather conditions updated 43 minutes ago

Clear
Clear
70.0 °F
Feels Like 70.0 °F
N
-
Wind Variable Wind from North

Today is forecast to be Warmer than yesterday.

Today
High -- | Low -- °F
--% Chance of Precip.
Yesterday
High -- | Low -- °F
Precip. -- in
6:47 AM 8:40 PM
Waxing Crescent, 33% visible
Pressure 30.06 in
Visibility 10.0 miles
Clouds Clear
Dew Point Not available.
Humidity Not available.
Rainfall 0.00 in
Snow Depth Not available.
UV 0 out of 12
Pollen 6.00 out of 12
Air Quality Not available.
Flu Activity Not available.
METAR KCSM 020753Z AUTO 21008KT 10SM CLR 21/18 A3013 RMK AO2 SLP179 T02060178

More Conditions Fewer Conditions

Pressure 30.06 in
Visibility 10.0 miles
Clouds Clear
Dew Point Not available.
Humidity Not available.
Rainfall 0.00 in
Snow Depth Not available.
UV 0 out of 12
Pollen 6.00 out of 12
Air Quality Not available.
Flu Activity Not available.
METAR KCSM 020753Z AUTO 21008KT 10SM CLR 21/18 A3013 RMK AO2 SLP179 T02060178

More Conditions Fewer Conditions

10-Day Weather Forecast

Almanac

Astronomy

Aug. 02, 2014 Rise Set
Actual Time 6:47 AM CDT 8:40 PM CDT
Civil Twilight 6:19 AM CDT 9:08 PM CDT
Nautical Twilight 5:45 AM CDT 9:41 PM CDT
Astronomical Twilight 5:09 AM CDT 10:17 PM CDT
Moon 12:55 PM CDT No Moon Set
Length of Visible Light 14h 49m
Length of Day
13h 53m
Tomorrow will be 1m 42s shorter.
Waxing Crescent, 33% of the Moon is Illuminated
Today
Waxing Crescent
Aug 3
First Quarter
Aug 10
Full
Aug 17
Last Quarter
Aug 25
New

Today's Extremes

State Highs State Lows

Community

WunderPhotos

Upload Photos

1,739,850 photos uploaded!

Nearby

Snow Depth

Station Depth Elevation
No new snow has been reported.

Earthquake Activity

City Distance Mag. Time & Date
Medford, Oklahoma 119 miles 2.7 2:39 AM CDT
2014-07-29
Medford, Oklahoma 121 miles 4.3 9:46 PM CDT
2014-07-28
Cherokee, Oklahoma 107 miles 3.0 5:26 PM CDT
2014-07-28
Medford, Oklahoma 129 miles 2.9 3:39 PM CDT
2014-07-27
Minimum magnitude displayed is 2.5.

Coastal Water Temperatures

Place Temperature
No Stations Reporting

Nearby Weather Stations

Station Location Temp. Dew Point Humidity Wind Precip. Elev Updated Type
Western Oklahoma, Erick, OK 63.1 °F 62 °F 97% SSE  at  0.0 mph 0.00 in / hr 1978 ft 3:43 AM CDT Rapid Fire

Show More Stations Show Fewer Stations